Time;durP1;ratioP1;P1;durP2;ratioP2;P2;SDS_P1;SDS_P2;PMS_P1;PMS_P2;Temp;Humidity;BMP_temperature;BMP_pressure;BME280_temperature;BME280_humidity;BME280_pressure;Samples;Min_cycle;Max_cycle;Signal;HPM_P1;HPM_P2
2023/06/22 00:01:24;;;;;;;6.90;5.93;;;18.70;99.90;18.20;100495;;;;584705;241;24012;-82
2023/06/22 00:03:51;;;;;;;8.40;5.97;;;18.70;99.90;18.10;100499;;;;584422;241;24012;-82
2023/06/22 00:06:19;;;;;;;11.03;6.10;;;18.70;99.90;18.10;100505;;;;584334;241;24023;-82
2023/06/22 00:08:47;;;;;;;7.50;6.67;;;18.60;99.90;18.00;100515;;;;584190;241;24039;-79
2023/06/22 00:11:15;;;;;;;9.53;5.90;;;18.60;99.90;18.00;100513;;;;584293;241;24017;-81
2023/06/22 00:13:43;;;;;;;9.83;6.50;;;18.60;99.90;18.00;100515;;;;584094;242;23034;-80
2023/06/22 00:16:11;;;;;;;7.93;6.30;;;18.50;99.90;17.90;100513;;;;583950;242;23033;-80
2023/06/22 00:18:46;;;;;;;8.23;6.17;;;18.40;99.90;17.90;100508;;;;584066;242;24053;-82
2023/06/22 00:21:08;;;;;;;7.53;6.53;;;18.40;99.90;17.80;100502;;;;583434;242;24031;-81
2023/06/22 00:23:36;;;;;;;9.50;6.43;;;18.40;99.90;17.80;100502;;;;584069;242;24016;-81
2023/06/22 00:26:03;;;;;;;6.50;5.97;;;18.40;99.90;17.70;100511;;;;584190;242;24013;-81
2023/06/22 00:28:31;;;;;;;7.90;6.53;;;18.20;99.90;17.70;100510;;;;584250;242;24083;-83
2023/06/22 00:31:00;;;;;;;7.60;6.80;;;18.20;99.90;17.60;100510;;;;584246;242;24076;-81
2023/06/22 00:33:28;;;;;;;8.07;6.60;;;18.20;99.90;17.60;100515;;;;584081;242;24026;-82
2023/06/22 00:35:55;;;;;;;10.63;6.67;;;18.20;99.90;17.50;100515;;;;583946;242;24122;-81
2023/06/22 00:38:23;;;;;;;9.63;5.77;;;18.10;99.90;17.50;100522;;;;583952;242;24031;-81
2023/06/22 00:40:51;;;;;;;8.17;5.73;;;18.10;99.90;17.40;100520;;;;584009;242;24004;-80
2023/06/22 00:43:20;;;;;;;9.50;6.53;;;17.90;99.90;17.40;100512;;;;584063;242;24068;-81
2023/06/22 00:45:48;;;;;;;15.50;6.17;;;17.90;99.90;17.30;100513;;;;585236;242;24013;-81
2023/06/22 00:48:18;;;;;;;9.77;7.10;;;17.90;99.90;17.30;100522;;;;583870;242;24023;-78
2023/06/22 00:50:47;;;;;;;7.30;5.20;;;17.80;99.90;17.30;100522;;;;583692;242;24025;-80
2023/06/22 00:53:11;;;;;;;15.00;6.80;;;17.90;99.90;17.30;100523;;;;583917;242;24176;-80
2023/06/22 00:55:39;;;;;;;7.63;6.40;;;17.90;99.90;17.40;100527;;;;583917;242;24158;-80
2023/06/22 00:58:10;;;;;;;6.40;5.63;;;17.90;99.90;17.30;100524;;;;583989;242;24031;-80
2023/06/22 01:00:38;;;;;;;7.27;6.13;;;17.90;99.90;17.30;100524;;;;583647;242;24025;-78
2023/06/22 01:03:07;;;;;;;8.67;5.93;;;17.90;99.90;17.30;100530;;;;583297;242;24017;-79
2023/06/22 01:05:31;;;;;;;12.23;6.23;;;17.80;99.90;17.30;100526;;;;573316;246;24051;-81
2023/06/22 01:08:04;;;;;;;10.67;7.13;;;17.80;99.90;17.20;100515;;;;574333;246;24079;-80
2023/06/22 01:10:47;;;;;;;8.73;6.13;;;17.80;99.90;17.20;100519;;;;585218;241;24031;-78
2023/06/22 01:13:30;;;;;;;10.50;7.03;;;17.70;99.90;17.20;100528;;;;573679;246;24040;-77
2023/06/22 01:16:32;;;;;;;8.77;6.53;;;17.70;99.90;17.10;100513;;;;584520;241;24013;-79
2023/06/22 01:19:02;;;;;;;7.60;5.40;;;17.70;99.90;17.10;100507;;;;582462;246;24245;-78
2023/06/22 01:21:30;;;;;;;8.83;6.10;;;17.70;99.90;17.10;100504;;;;583543;241;24061;-79
2023/06/22 01:24:16;;;;;;;8.43;7.13;;;17.70;99.90;17.10;100504;;;;584137;241;24016;-79
2023/06/22 01:26:43;;;;;;;9.97;7.00;;;17.60;99.90;17.00;100506;;;;584253;242;24020;-78
2023/06/22 01:29:15;;;;;;;12.15;9.73;;;17.60;99.90;17.00;100509;;;;578043;242;35022;-78
2023/06/22 01:31:43;;;;;;;11.60;7.40;;;17.60;99.90;17.00;100507;;;;583329;242;24033;-78
2023/06/22 01:34:07;;;;;;;9.60;6.63;;;17.50;99.90;17.00;100517;;;;589879;242;24035;-78
2023/06/22 01:36:35;;;;;;;11.67;6.80;;;17.50;99.90;17.00;100509;;;;583965;242;24020;-78
2023/06/22 01:39:03;;;;;;;10.23;7.30;;;17.50;99.90;16.90;100515;;;;584227;242;24067;-79
2023/06/22 01:41:31;;;;;;;9.13;6.87;;;17.50;99.90;16.90;100506;;;;584133;242;24043;-77
2023/06/22 01:44:03;;;;;;;9.43;7.17;;;17.50;99.90;16.90;100511;;;;583867;242;24056;-78
2023/06/22 01:46:27;;;;;;;9.73;6.90;;;17.40;99.90;16.80;100510;;;;583567;242;24044;-78
2023/06/22 01:48:56;;;;;;;9.40;6.77;;;17.40;99.90;16.80;100519;;;;583925;242;25068;-79
2023/06/22 01:51:23;;;;;;;8.40;7.03;;;17.40;99.90;16.80;100511;;;;583647;242;24107;-79
2023/06/22 01:53:51;;;;;;;9.70;7.30;;;17.30;99.90;16.70;100511;;;;583439;242;24067;-77
2023/06/22 01:56:20;;;;;;;12.17;6.93;;;17.30;99.90;16.70;100520;;;;583777;242;24044;-81
2023/06/22 01:58:51;;;;;;;13.60;6.93;;;17.20;99.90;16.70;100521;;;;583747;242;24044;-78
2023/06/22 02:01:18;;;;;;;14.70;8.03;;;17.20;99.90;16.60;100525;;;;583303;242;24085;-80
2023/06/22 02:03:49;;;;;;;10.83;7.90;;;17.20;99.90;16.60;100522;;;;583311;242;24062;-78
2023/06/22 02:06:20;;;;;;;11.73;7.60;;;17.20;99.90;16.60;100529;;;;581752;242;24033;-80
2023/06/22 02:08:48;;;;;;;9.20;7.03;;;17.20;99.90;16.60;100523;;;;583115;242;24135;-77
2023/06/22 02:11:20;;;;;;;11.03;8.00;;;17.10;99.90;16.60;100524;;;;572992;246;24126;-77
2023/06/22 02:13:48;;;;;;;13.27;8.03;;;17.10;99.90;16.50;100522;;;;572951;246;24070;-78
2023/06/22 02:16:12;;;;;;;15.83;7.93;;;17.10;99.90;16.50;100531;;;;583367;242;24091;-77
2023/06/22 02:18:40;;;;;;;15.17;7.37;;;17.10;99.90;16.50;100526;;;;573118;244;24059;-80
2023/06/22 02:21:08;;;;;;;11.60;8.07;;;17.00;99.90;16.50;100533;;;;573791;246;24053;-79
2023/06/22 02:23:36;;;;;;;11.13;7.77;;;17.00;99.90;16.50;100530;;;;585227;237;24016;-79
2023/06/22 02:26:04;;;;;;;13.87;7.80;;;17.00;99.90;16.50;100535;;;;584914;241;24012;-81
2023/06/22 02:28:32;;;;;;;11.17;8.77;;;17.00;99.90;16.50;100546;;;;585099;241;24084;-78
2023/06/22 02:31:00;;;;;;;15.97;9.03;;;17.00;99.90;16.50;100553;;;;585426;241;24082;-81
2023/06/22 02:33:28;;;;;;;15.00;9.20;;;17.00;99.90;16.50;100554;;;;584463;241;24028;-82
2023/06/22 02:35:56;;;;;;;13.77;9.30;;;17.00;99.90;16.50;100550;;;;584681;241;24040;-82
2023/06/22 02:38:24;;;;;;;13.17;8.23;;;17.00;99.90;16.50;100549;;;;584431;242;24028;-80
2023/06/22 02:40:52;;;;;;;14.23;10.00;;;17.00;99.90;16.50;100556;;;;584206;242;23073;-78
2023/06/22 02:43:20;;;;;;;12.90;9.17;;;17.00;99.90;16.50;100554;;;;584274;242;24082;-82
2023/06/22 02:45:47;;;;;;;14.40;9.97;;;17.10;99.90;16.50;100556;;;;584367;242;24035;-80
2023/06/22 02:48:15;;;;;;;14.00;9.57;;;17.10;99.90;16.50;100562;;;;584267;242;24016;-82
2023/06/22 02:50:43;;;;;;;15.57;10.47;;;17.10;99.90;16.60;100569;;;;584401;242;24026;-81
2023/06/22 02:53:11;;;;;;;22.63;10.97;;;17.10;99.90;16.60;100571;;;;583940;242;24048;-80
2023/06/22 02:55:39;;;;;;;18.33;10.80;;;17.10;99.90;16.60;100579;;;;583951;242;24119;-80
2023/06/22 02:58:07;;;;;;;15.07;11.50;;;17.10;99.90;16.70;100582;;;;583684;242;24034;-82
2023/06/22 03:00:35;;;;;;;21.33;10.50;;;17.20;99.90;16.70;100581;;;;584071;237;24075;-82
2023/06/22 03:03:04;;;;;;;18.53;11.57;;;17.30;99.90;16.80;100570;;;;584022;242;24067;-81
2023/06/22 03:05:35;;;;;;;20.03;10.77;;;17.30;99.90;16.80;100572;;;;583917;242;24030;-81
2023/06/22 03:08:00;;;;;;;17.47;11.47;;;17.30;99.90;16.90;100570;;;;583997;242;24079;-81
2023/06/22 03:10:28;;;;;;;17.67;12.60;;;17.40;99.90;17.00;100565;;;;584055;242;24012;-81
2023/06/22 03:12:57;;;;;;;19.23;10.37;;;17.60;99.90;17.20;100587;;;;584080;242;24017;-82
2023/06/22 03:15:26;;;;;;;16.03;11.73;;;18.00;99.90;17.60;100591;;;;584113;242;24026;-82
2023/06/22 03:17:54;;;;;;;17.77;11.20;;;18.30;99.90;18.00;100594;;;;584077;242;24072;-80
2023/06/22 03:20:23;;;;;;;20.80;10.43;;;18.80;99.90;18.40;100602;;;;584068;242;24030;-78
2023/06/22 03:22:52;;;;;;;14.37;10.40;;;19.20;99.90;18.80;100600;;;;583593;242;24091;-80
2023/06/22 03:25:20;;;;;;;15.60;10.77;;;19.60;99.90;19.20;100609;;;;584132;242;24031;-78
2023/06/22 03:27:49;;;;;;;18.27;8.47;;;20.00;99.90;19.60;100604;;;;584106;242;23998;-79
2023/06/22 03:30:18;;;;;;;13.70;8.60;;;20.30;99.90;19.90;100599;;;;583916;240;23128;-81
2023/06/22 03:32:46;;;;;;;12.97;9.90;;;20.60;99.90;20.20;100611;;;;585160;241;24030;-81
2023/06/22 03:35:14;;;;;;;12.43;8.97;;;20.60;99.90;20.50;100615;;;;584486;241;24069;-82
2023/06/22 03:37:42;;;;;;;12.43;8.80;;;20.90;99.90;20.80;100620;;;;584505;241;24028;-81
2023/06/22 03:40:14;;;;;;;11.17;8.40;;;21.20;99.90;21.10;100624;;;;584269;241;24026;-80
2023/06/22 03:42:38;;;;;;;12.07;8.23;;;21.50;99.90;21.50;100625;;;;583987;241;24032;-81
2023/06/22 03:45:06;;;;;;;11.23;8.00;;;21.90;99.90;21.90;100623;;;;584234;241;23026;-79
2023/06/22 03:47:34;;;;;;;10.10;8.50;;;22.30;99.90;22.20;100617;;;;584265;241;24058;-80
2023/06/22 03:50:06;;;;;;;9.13;7.63;;;22.60;99.90;22.40;100621;;;;584590;242;24007;-80
2023/06/22 03:52:34;;;;;;;10.80;7.87;;;22.80;99.90;22.70;100628;;;;584245;242;24002;-78
2023/06/22 03:55:01;;;;;;;9.60;7.87;;;23.10;99.90;22.80;100633;;;;584684;242;24027;-81
2023/06/22 03:57:27;;;;;;;8.77;7.47;;;23.60;99.90;23.10;100632;;;;584469;238;24056;-81
2023/06/22 03:59:55;;;;;;;9.13;7.33;;;24.00;99.90;23.60;100633;;;;584338;242;24016;-83
2023/06/22 04:02:23;;;;;;;10.57;7.03;;;24.00;99.90;23.90;100636;;;;584859;242;24029;-81
2023/06/22 04:04:51;;;;;;;12.27;7.73;;;24.40;99.90;23.90;100647;;;;585756;242;23088;-81
2023/06/22 04:07:19;;;;;;;14.87;7.60;;;24.50;99.90;24.20;100650;;;;585116;242;24040;-80
2023/06/22 04:09:47;;;;;;;9.93;7.27;;;24.70;99.90;24.40;100658;;;;584959;242;23032;-82
2023/06/22 04:12:15;;;;;;;11.83;6.90;;;24.90;99.90;24.60;100666;;;;584098;242;23073;-82
2023/06/22 04:14:43;;;;;;;9.63;6.97;;;25.10;99.90;25.00;100675;;;;584110;242;23019;-83
2023/06/22 04:17:14;;;;;;;7.67;6.97;;;25.50;99.90;25.50;100682;;;;584029;242;23035;-79
2023/06/22 04:19:39;;;;;;;9.13;7.33;;;25.90;99.90;25.90;100683;;;;583856;242;23038;-80
2023/06/22 04:22:07;;;;;;;9.07;7.73;;;26.40;99.90;26.10;100680;;;;584032;242;24024;-83
2023/06/22 04:24:34;;;;;;;12.07;7.73;;;26.70;99.90;25.80;100672;;;;583832;242;23096;-81
2023/06/22 04:27:05;;;;;;;9.30;6.37;;;26.50;99.90;25.70;100666;;;;583850;242;23054;-80
2023/06/22 04:29:31;;;;;;;7.90;7.10;;;26.50;99.90;26.00;100660;;;;584032;242;23028;-81
2023/06/22 04:32:02;;;;;;;7.80;6.77;;;26.50;99.90;26.20;100669;;;;584799;242;23039;-82
2023/06/22 04:34:27;;;;;;;11.17;6.60;;;26.70;99.90;26.40;100662;;;;584365;242;24101;-81
2023/06/22 04:36:56;;;;;;;11.97;6.87;;;27.10;99.90;26.50;100668;;;;584099;242;23126;-81
2023/06/22 04:39:24;;;;;;;16.08;6.87;;;27.40;99.90;26.80;100671;;;;584053;242;23031;-81
2023/06/22 04:41:54;;;;;;;9.57;7.20;;;27.20;99.90;26.50;100682;;;;584145;239;23107;-81
2023/06/22 04:44:24;;;;;;;10.50;6.27;;;27.10;99.90;25.80;100676;;;;585524;241;24026;-82
2023/06/22 04:46:59;;;;;;;7.97;7.07;;;26.50;99.90;25.30;100672;;;;585124;241;23072;-83
2023/06/22 04:49:32;;;;;;;15.33;6.77;;;26.00;99.90;25.00;100671;;;;584978;241;24022;-83
2023/06/22 04:51:54;;;;;;;8.00;6.37;;;25.60;99.90;24.50;100686;;;;584325;241;25100;-81
2023/06/22 04:54:20;;;;;;;12.13;6.53;;;25.10;99.90;23.90;100682;;;;584380;241;23050;-81
2023/06/22 04:56:53;;;;;;;10.80;6.80;;;24.50;99.90;23.40;100676;;;;584115;241;23059;-78
2023/06/22 04:59:18;;;;;;;14.47;6.70;;;24.00;99.90;23.00;100682;;;;583851;241;24063;-81
2023/06/22 05:01:43;;;;;;;6.83;5.70;;;23.50;99.90;22.80;100674;;;;584149;242;24013;-78
2023/06/22 05:04:12;;;;;;;6.30;5.67;;;23.30;99.90;22.60;100679;;;;584326;242;24006;-79
2023/06/22 05:06:39;;;;;;;7.37;5.63;;;23.10;99.90;22.40;100680;;;;584379;242;24002;-79
2023/06/22 05:09:08;;;;;;;11.73;6.73;;;22.80;99.90;22.30;100670;;;;584393;242;24009;-83
2023/06/22 05:11:36;;;;;;;13.67;7.73;;;22.70;99.90;22.30;100676;;;;584361;242;23069;-81
2023/06/22 05:14:04;;;;;;;8.77;6.00;;;22.70;99.90;22.20;100678;;;;584216;242;23997;-82
2023/06/22 05:16:32;;;;;;;6.53;5.80;;;22.70;99.90;22.30;100670;;;;584357;242;24000;-82
2023/06/22 05:19:00;;;;;;;9.67;5.90;;;22.70;99.90;22.60;100675;;;;584115;242;24016;-81
2023/06/22 05:21:28;;;;;;;7.10;5.67;;;23.00;99.90;22.90;100677;;;;584066;242;24027;-83
2023/06/22 05:23:59;;;;;;;9.53;5.23;;;23.30;99.90;23.00;100682;;;;583996;242;24099;-80
2023/06/22 05:26:24;;;;;;;7.97;5.63;;;23.40;99.90;23.10;100681;;;;583326;242;24058;-81
2023/06/22 05:28:51;;;;;;;7.83;5.67;;;23.50;99.90;23.30;100683;;;;583752;242;23041;-81
2023/06/22 05:31:22;;;;;;;8.00;5.63;;;23.70;99.90;23.40;100676;;;;584049;242;24009;-82
2023/06/22 05:33:50;;;;;;;6.30;4.80;;;23.90;99.90;23.90;100678;;;;584055;242;23119;-80
2023/06/22 05:36:19;;;;;;;7.10;4.03;;;24.20;99.90;24.50;100679;;;;584058;242;24002;-81
2023/06/22 05:38:46;;;;;;;7.47;4.60;;;24.80;99.90;24.50;100693;;;;584030;242;23083;-82
2023/06/22 05:41:14;;;;;;;6.97;4.57;;;25.00;99.90;24.20;100685;;;;584132;242;24024;-81
2023/06/22 05:43:42;;;;;;;5.87;4.07;;;24.70;99.90;24.10;100690;;;;584337;242;23029;-82
2023/06/22 05:46:10;;;;;;;25.87;4.83;;;24.60;99.90;24.10;100689;;;;584341;242;23041;-81
2023/06/22 05:48:38;;;;;;;4.83;3.40;;;24.50;99.90;25.00;100688;;;;584373;242;24092;-82
2023/06/22 05:51:06;;;;;;;5.73;3.73;;;25.30;99.90;26.80;100701;;;;584109;242;23039;-78
2023/06/22 05:53:33;;;;;;;4.43;3.47;;;26.80;99.90;28.10;100700;;;;584041;239;23103;-82
2023/06/22 05:56:01;;;;;;;5.43;3.30;;;28.30;99.90;29.30;100695;;;;585257;241;23090;-80
2023/06/22 05:58:29;;;;;;;7.68;3.35;;;29.70;99.90;30.00;100697;;;;584645;241;24079;-80
2023/06/22 06:00:57;;;;;;;6.05;3.17;;;30.30;97.40;30.90;100702;;;;584650;241;23087;-84
2023/06/22 06:03:28;;;;;;;15.40;4.15;;;31.20;94.90;31.40;100705;;;;584800;241;23074;-82
2023/06/22 06:05:57;;;;;;;4.10;3.15;;;31.80;92.00;31.40;100713;;;;584454;241;23023;-83
2023/06/22 06:08:21;;;;;;;5.25;2.60;;;31.90;89.70;31.70;100717;;;;584391;241;23030;-82
2023/06/22 06:10:53;;;;;;;5.68;3.30;;;32.70;82.80;32.40;100714;;;;584568;241;23025;-79
2023/06/22 06:13:21;;;;;;;19.23;4.35;;;32.70;82.70;32.80;100728;;;;583645;242;23054;-82
2023/06/22 06:15:59;;;;;;;6.35;3.20;;;33.20;80.10;33.40;100725;;;;583532;242;23126;-81
2023/06/22 06:18:17;;;;;;;3.42;2.92;;;33.80;77.40;34.30;100722;;;;582568;242;23057;-79
2023/06/22 06:20:45;;;;;;;4.10;2.92;;;34.60;74.10;35.60;100728;;;;584277;242;23042;-81
2023/06/22 06:23:13;;;;;;;7.87;3.03;;;35.80;70.50;36.90;100714;;;;584312;242;23028;-82
2023/06/22 06:25:40;;;;;;;8.07;2.83;;;37.10;66.00;38.40;100722;;;;584263;242;23049;-82
2023/06/22 06:28:13;;;;;;;7.37;2.55;;;39.20;57.80;39.00;100725;;;;584049;242;23090;-81
2023/06/22 06:30:38;;;;;;;4.80;2.50;;;40.10;55.40;39.90;100724;;;;583332;242;24109;-81
2023/06/22 06:33:08;;;;;;;3.45;2.78;;;40.80;53.60;40.60;100724;;;;583926;242;23048;-82
2023/06/22 06:35:34;;;;;;;7.57;2.90;;;40.70;53.30;41.00;100730;;;;584010;242;23035;-80
2023/06/22 06:38:02;;;;;;;4.03;2.40;;;41.30;51.30;41.40;100726;;;;584015;242;23027;-83
2023/06/22 06:40:30;;;;;;;7.43;2.92;;;41.70;49.80;41.70;100720;;;;578886;242;45784;-80
2023/06/22 06:43:02;;;;;;;5.65;2.90;;;41.90;48.80;42.40;100728;;;;584016;242;23087;-83
2023/06/22 06:45:32;;;;;;;10.68;2.30;;;43.40;46.70;43.20;100723;;;;584476;242;23026;-83
2023/06/22 06:47:59;;;;;;;2.22;2.05;;;44.10;45.50;44.00;100725;;;;585062;242;23165;-81
2023/06/22 06:50:30;;;;;;;3.85;2.28;;;44.10;45.40;44.70;100738;;;;584377;242;23038;-84
2023/06/22 06:52:56;;;;;;;4.12;2.40;;;44.90;43.80;45.00;100744;;;;583710;242;23035;-84
2023/06/22 06:55:25;;;;;;;4.68;2.53;;;45.20;43.50;44.40;100760;;;;584050;242;23054;-82
2023/06/22 06:57:52;;;;;;;4.25;2.33;;;44.90;42.60;43.20;100755;;;;578988;242;34926;-86
2023/06/22 07:00:23;;;;;;;3.20;2.37;;;43.60;44.00;43.20;100757;;;;583974;242;23088;-80
2023/06/22 07:02:48;;;;;;;14.52;3.42;;;43.50;44.00;44.00;100761;;;;592096;242;23035;-81
2023/06/22 07:05:16;;;;;;;3.95;2.92;;;44.10;43.40;44.80;100759;;;;585469;239;23019;-81
2023/06/22 07:07:44;;;;;;;3.97;2.20;;;45.70;42.30;45.80;100766;;;;585957;241;23044;-81
2023/06/22 07:10:13;;;;;;;8.48;2.53;;;46.10;40.90;46.10;100765;;;;585322;241;23134;-83
2023/06/22 07:12:41;;;;;;;4.60;2.12;;;46.00;40.80;45.50;100769;;;;585531;241;23031;-82
2023/06/22 07:15:09;;;;;;;8.40;2.20;;;45.90;40.40;44.80;100763;;;;585081;241;23155;-83
2023/06/22 07:17:37;;;;;;;8.75;3.03;;;45.30;40.30;43.80;100769;;;;584953;241;23104;-84
2023/06/22 07:20:11;;;;;;;6.03;2.40;;;44.40;41.20;44.30;100765;;;;584651;241;23063;-83
2023/06/22 07:22:42;;;;;;;13.18;2.70;;;44.50;41.60;45.40;100770;;;;584647;241;23089;-84
2023/06/22 07:25:09;;;;;;;4.80;2.67;;;45.20;41.20;46.10;100763;;;;583673;242;23031;-86
2023/06/22 07:27:37;;;;;;;7.05;2.85;;;46.80;40.00;46.90;100773;;;;584277;242;23051;-84
2023/06/22 07:30:08;;;;;;;6.32;2.30;;;46.80;40.00;47.50;100763;;;;583906;242;23044;-85
2023/06/22 07:32:33;;;;;;;3.92;2.55;;;47.40;39.10;47.90;100769;;;;584208;242;24079;-83
2023/06/22 07:35:06;;;;;;;6.50;2.40;;;47.60;38.40;47.30;100779;;;;584471;242;23034;-83
2023/06/22 07:37:33;;;;;;;5.45;1.87;;;47.50;38.70;47.40;100779;;;;583895;242;23125;-84
2023/06/22 07:39:59;;;;;;;3.00;2.00;;;47.50;38.00;47.40;100787;;;;584286;237;24051;-82
2023/06/22 07:42:27;;;;;;;3.53;2.35;;;47.60;38.10;46.90;100785;;;;579165;242;34888;-85
2023/06/22 07:44:54;;;;;;;8.02;2.22;;;47.20;37.20;46.60;100795;;;;592173;237;23030;-84
2023/06/22 07:47:25;;;;;;;3.28;2.08;;;46.90;37.10;46.10;100797;;;;584160;242;23015;-84
2023/06/22 07:49:50;;;;;;;4.45;2.40;;;46.50;37.50;45.80;100794;;;;573675;246;23116;-84
2023/06/22 07:52:21;;;;;;;6.18;2.58;;;46.00;37.90;45.80;100791;;;;584205;242;23044;-82
2023/06/22 07:54:49;;;;;;;4.97;2.28;;;45.90;37.90;46.40;100790;;;;584205;242;23079;-85
2023/06/22 07:57:14;;;;;;;5.53;2.40;;;46.30;37.80;47.60;100793;;;;584030;238;23030;-81
2023/06/22 07:59:42;;;;;;;2.97;2.50;;;47.30;37.70;47.90;100796;;;;584087;242;23162;-84
2023/06/22 08:02:11;;;;;;;4.53;2.40;;;47.80;36.10;47.60;100809;;;;583624;242;23084;-82
2023/06/22 08:04:42;;;;;;;4.40;2.42;;;47.80;36.00;47.90;100801;;;;584064;242;24109;-83
2023/06/22 08:07:07;;;;;;;35.60;5.40;;;47.90;36.60;48.60;100811;;;;583622;242;23052;-83
2023/06/22 08:09:36;;;;;;;20.33;3.45;;;49.00;36.00;49.10;100812;;;;584080;242;23022;-84
2023/06/22 08:12:09;;;;;;;4.53;2.53;;;49.10;35.10;49.00;100811;;;;584127;242;23027;-84
2023/06/22 08:14:36;;;;;;;3.35;2.47;;;49.00;35.00;47.80;100808;;;;583844;242;23046;-83
2023/06/22 08:17:02;;;;;;;5.00;2.40;;;48.30;34.90;46.40;100808;;;;584284;241;23028;-83
2023/06/22 08:19:30;;;;;;;7.87;2.42;;;47.10;35.70;45.30;100811;;;;585434;241;23052;-85
2023/06/22 08:22:01;;;;;;;7.87;2.65;;;45.90;37.20;45.00;100809;;;;585015;241;23093;-83
2023/06/22 08:24:30;;;;;;;3.05;2.17;;;45.70;38.30;45.90;100807;;;;584753;241;24069;-86
2023/06/22 08:26:54;;;;;;;15.43;4.00;;;45.70;38.30;46.70;100806;;;;584463;241;23032;-85
2023/06/22 08:29:22;;;;;;;20.45;4.12;;;46.50;36.80;47.00;100812;;;;584729;241;23037;-85
2023/06/22 08:31:50;;;;;;;3.62;2.40;;;47.00;37.10;47.50;100810;;;;584513;241;23041;-85
2023/06/22 08:34:21;;;;;;;5.22;2.50;;;47.40;36.80;47.30;100812;;;;584629;241;23065;-85
2023/06/22 08:36:51;;;;;;;16.77;3.70;;;47.50;35.90;46.90;100818;;;;584161;242;23022;-84
2023/06/22 08:39:18;;;;;;;9.32;2.70;;;47.20;36.30;47.30;100812;;;;584228;242;23042;-84
2023/06/22 08:41:42;;;;;;;9.75;2.62;;;47.40;36.60;47.80;100806;;;;584086;242;23073;-83
2023/06/22 08:44:10;;;;;;;7.28;2.62;;;47.90;35.80;47.90;100803;;;;584371;242;23041;-83
2023/06/22 08:46:42;;;;;;;6.22;2.17;;;48.00;36.00;48.50;100811;;;;584115;241;23042;-83
2023/06/22 08:49:09;;;;;;;14.57;3.90;;;48.60;35.70;49.10;100811;;;;583922;242;23049;-84
2023/06/22 08:51:34;;;;;;;10.80;3.12;;;49.10;35.60;49.50;100807;;;;584063;242;23050;-85
2023/06/22 08:54:02;;;;;;;5.18;2.50;;;49.60;34.70;50.10;100815;;;;584280;242;23070;-86
2023/06/22 08:56:29;;;;;;;5.40;2.53;;;50.20;34.70;50.70;100818;;;;584104;242;23030;-86
2023/06/22 08:58:57;;;;;;;5.18;2.65;;;50.90;34.10;50.90;100814;;;;583730;242;23064;-84
2023/06/22 09:01:26;;;;;;;50.92;7.50;;;51.50;33.70;51.20;100815;;;;583687;242;23049;-80
2023/06/22 09:03:57;;;;;;;5.68;2.40;;;51.50;32.70;51.00;100814;;;;584264;238;23043;-83
2023/06/22 09:06:24;;;;;;;13.62;3.50;;;51.80;32.20;51.30;100815;;;;578867;242;36875;-84
2023/06/22 09:08:52;;;;;;;5.47;2.70;;;51.90;32.70;51.40;100809;;;;583997;242;23030;-87
2023/06/22 09:11:20;;;;;;;8.52;3.10;;;51.80;32.60;51.90;100813;;;;584013;242;23031;-86
2023/06/22 09:13:48;;;;;;;13.25;3.08;;;52.20;32.00;52.30;100800;;;;584072;242;23030;-86
2023/06/22 09:16:16;;;;;;;8.93;2.58;;;52.60;32.10;52.50;100809;;;;584053;242;23121;-84
2023/06/22 09:18:44;;;;;;;3.55;2.50;;;53.00;31.90;52.60;100802;;;;584123;242;23039;-85
2023/06/22 09:21:12;;;;;;;55.63;7.55;;;53.20;31.50;52.40;100808;;;;583843;242;23053;-85
2023/06/22 09:23:40;;;;;;;10.65;2.85;;;53.00;31.70;53.10;100800;;;;584291;242;23085;-85
2023/06/22 09:26:08;;;;;;;8.02;2.50;;;53.60;31.90;53.90;100803;;;;584262;242;23019;-83
2023/06/22 09:28:35;;;;;;;36.17;4.87;;;54.40;31.20;54.30;100811;;;;584319;241;23096;-83
2023/06/22 09:31:03;;;;;;;13.35;3.75;;;54.90;30.60;53.90;100810;;;;585387;241;23068;-86
2023/06/22 09:33:31;;;;;;;23.20;3.12;;;54.80;29.80;53.60;100809;;;;584586;241;23104;-82
2023/06/22 09:35:59;;;;;;;5.15;2.28;;;54.60;30.00;53.10;100812;;;;584489;241;23052;-83
2023/06/22 09:38:28;;;;;;;5.25;2.80;;;53.70;30.20;53.00;100811;;;;584419;241;23094;-83
2023/06/22 09:40:57;;;;;;;5.90;2.47;;;53.90;29.90;53.10;100808;;;;584935;241;23083;-83
2023/06/22 09:43:25;;;;;;;2.37;2.08;;;53.90;29.90;52.50;100815;;;;584622;241;23210;-82
2023/06/22 09:45:52;;;;;;;4.22;2.60;;;53.60;30.00;52.10;100812;;;;584153;241;23054;-84
2023/06/22 09:48:20;;;;;;;2.78;2.10;;;53.10;30.20;52.00;100802;;;;584050;242;23007;-82
2023/06/22 09:50:48;;;;;;;17.45;3.40;;;52.90;30.20;52.70;100812;;;;584514;242;23026;-82
2023/06/22 09:53:19;;;;;;;12.90;3.12;;;53.30;30.60;53.20;100815;;;;588979;242;23034;-81
2023/06/22 09:55:44;;;;;;;5.72;2.00;;;54.00;29.90;52.50;100810;;;;584840;241;25278;-83
2023/06/22 09:58:12;;;;;;;17.52;4.72;;;53.70;29.90;52.30;100815;;;;584456;242;23045;-82
2023/06/22 10:00:41;;;;;;;5.87;3.15;;;53.40;30.30;52.50;100807;;;;591767;242;23051;-87
2023/06/22 10:03:08;;;;;;;9.18;2.92;;;53.50;30.30;52.50;100813;;;;584127;242;23088;-86
2023/06/22 10:05:36;;;;;;;2.70;2.20;;;53.40;30.40;52.20;100806;;;;583893;242;23067;-86
2023/06/22 10:08:07;;;;;;;13.80;4.30;;;53.20;30.60;51.20;100810;;;;578856;242;34984;-84
2023/06/22 10:10:32;;;;;;;12.00;3.53;;;51.50;31.50;50.20;100812;;;;583350;242;23066;-86
2023/06/22 10:13:01;;;;;;;9.98;3.55;;;50.90;31.60;49.80;100811;;;;583694;242;23027;-85
2023/06/22 10:15:30;;;;;;;8.52;3.60;;;50.50;31.60;49.40;100815;;;;582788;242;23055;-82
2023/06/22 10:18:01;;;;;;;5.97;2.65;;;50.40;31.50;49.00;100809;;;;584305;242;23088;-87
2023/06/22 10:20:26;;;;;;;3.67;2.62;;;49.90;31.90;48.60;100810;;;;584501;242;23137;-84
2023/06/22 10:22:53;;;;;;;22.55;4.25;;;49.50;32.50;48.20;100811;;;;584314;238;23046;-86
2023/06/22 10:25:24;;;;;;;12.80;3.80;;;48.50;32.60;47.40;100816;;;;583932;242;26533;-84
2023/06/22 10:27:49;;;;;;;9.13;3.35;;;48.40;33.20;46.80;100816;;;;589802;242;23039;-84
2023/06/22 10:30:20;;;;;;;5.75;2.90;;;47.60;34.20;46.70;100822;;;;583819;242;23036;-84
2023/06/22 10:32:49;;;;;;;18.48;5.22;;;47.40;34.10;46.00;100819;;;;583642;242;23077;-86
2023/06/22 10:35:17;;;;;;;12.10;3.80;;;46.90;34.40;45.40;100813;;;;583177;242;23113;-86
2023/06/22 10:37:42;;;;;;;8.57;3.90;;;46.30;35.30;45.00;100814;;;;583296;242;23086;-83
2023/06/22 10:40:13;;;;;;;6.65;3.10;;;46.00;35.60;44.10;100816;;;;583817;241;23146;-85
2023/06/22 10:42:39;;;;;;;11.50;4.05;;;43.70;37.20;42.90;100811;;;;591774;241;23072;-84
2023/06/22 10:45:08;;;;;;;47.88;13.10;;;43.60;37.20;42.10;100817;;;;584828;241;23071;-82
2023/06/22 10:47:36;;;;;;;8.13;3.53;;;41.20;40.20;41.00;100811;;;;584202;241;23093;-82
2023/06/22 10:50:04;;;;;;;12.15;4.50;;;41.10;39.50;39.70;100815;;;;584101;241;23040;-84
2023/06/22 10:52:36;;;;;;;11.63;4.75;;;38.90;41.00;39.00;100807;;;;584045;241;23056;-84
2023/06/22 10:55:01;;;;;;;10.73;3.75;;;38.20;43.00;38.20;100804;;;;583476;241;24072;-85
2023/06/22 10:57:29;;;;;;;12.37;4.80;;;38.10;43.10;37.70;100797;;;;583863;241;23070;-84
2023/06/22 10:59:57;;;;;;;14.18;3.85;;;37.40;43.50;36.90;100805;;;;578542;242;34949;-84
2023/06/22 11:02:25;;;;;;;12.35;4.35;;;36.20;44.60;35.90;100809;;;;583622;242;23088;-80
2023/06/22 11:04:53;;;;;;;10.25;4.32;;;36.00;44.90;35.10;100807;;;;583998;242;23058;-83
2023/06/22 11:07:21;;;;;;;19.50;4.90;;;35.20;45.80;34.30;100801;;;;583668;242;23049;-84
2023/06/22 11:09:52;;;;;;;22.58;4.65;;;34.40;47.10;34.00;100804;;;;583871;242;24094;-81